sensor_id;sensor_type;location;lat;lon;timestamp;temperature;humidity
32366;DHT22;18837;46.832;16.838;2024-01-11T00:02:24;8.60;67.30
32366;DHT22;18837;46.832;16.838;2024-01-11T00:04:50;8.60;67.40
32366;DHT22;18837;46.832;16.838;2024-01-11T00:07:25;8.50;67.30
32366;DHT22;18837;46.832;16.838;2024-01-11T00:09:57;8.60;67.40
32366;DHT22;18837;46.832;16.838;2024-01-11T00:12:24;8.60;67.30
32366;DHT22;18837;46.832;16.838;2024-01-11T00:14:49;8.60;67.40
32366;DHT22;18837;46.832;16.838;2024-01-11T00:17:15;8.60;67.20
32366;DHT22;18837;46.832;16.838;2024-01-11T00:19:41;8.60;67.40
32366;DHT22;18837;46.832;16.838;2024-01-11T00:22:07;8.50;67.20
32366;DHT22;18837;46.832;16.838;2024-01-11T00:24:32;8.60;67.30
32366;DHT22;18837;46.832;16.838;2024-01-11T00:26:59;8.50;67.20
32366;DHT22;18837;46.832;16.838;2024-01-11T00:29:24;8.50;67.30
32366;DHT22;18837;46.832;16.838;2024-01-11T00:31:50;8.50;67.40
32366;DHT22;18837;46.832;16.838;2024-01-11T00:34:16;8.50;67.50
32366;DHT22;18837;46.832;16.838;2024-01-11T00:36:41;8.50;67.40
32366;DHT22;18837;46.832;16.838;2024-01-11T00:39:07;8.50;67.60
32366;DHT22;18837;46.832;16.838;2024-01-11T00:41:33;8.50;67.60
32366;DHT22;18837;46.832;16.838;2024-01-11T00:44:05;8.50;67.30
32366;DHT22;18837;46.832;16.838;2024-01-11T00:46:34;8.50;67.30
32366;DHT22;18837;46.832;16.838;2024-01-11T00:49:00;8.50;67.60
32366;DHT22;18837;46.832;16.838;2024-01-11T00:51:26;8.50;67.20
32366;DHT22;18837;46.832;16.838;2024-01-11T00:53:52;8.40;67.30
32366;DHT22;18837;46.832;16.838;2024-01-11T00:56:18;8.40;67.30
32366;DHT22;18837;46.832;16.838;2024-01-11T00:58:45;8.40;67.20
32366;DHT22;18837;46.832;16.838;2024-01-11T01:01:12;8.40;67.40
32366;DHT22;18837;46.832;16.838;2024-01-11T01:03:39;8.40;67.30
32366;DHT22;18837;46.832;16.838;2024-01-11T01:06:05;8.40;67.40
32366;DHT22;18837;46.832;16.838;2024-01-11T01:08:31;8.40;67.10
32366;DHT22;18837;46.832;16.838;2024-01-11T01:10:57;8.40;67.20
32366;DHT22;18837;46.832;16.838;2024-01-11T01:13:23;8.40;67.10
32366;DHT22;18837;46.832;16.838;2024-01-11T01:15:48;8.30;67.30
32366;DHT22;18837;46.832;16.838;2024-01-11T01:18:14;8.30;67.20
32366;DHT22;18837;46.832;16.838;2024-01-11T01:20:41;8.40;67.00
32366;DHT22;18837;46.832;16.838;2024-01-11T01:23:07;8.30;67.20
32366;DHT22;18837;46.832;16.838;2024-01-11T01:25:33;8.30;67.70
32366;DHT22;18837;46.832;16.838;2024-01-11T01:27:58;8.30;67.20
32366;DHT22;18837;46.832;16.838;2024-01-11T01:30:26;8.30;67.10
32366;DHT22;18837;46.832;16.838;2024-01-11T01:32:52;8.20;67.00
32366;DHT22;18837;46.832;16.838;2024-01-11T01:35:18;8.20;67.20
32366;DHT22;18837;46.832;16.838;2024-01-11T01:37:43;8.20;67.20
32366;DHT22;18837;46.832;16.838;2024-01-11T01:40:10;8.20;67.00
32366;DHT22;18837;46.832;16.838;2024-01-11T01:42:43;8.20;67.30
32366;DHT22;18837;46.832;16.838;2024-01-11T01:45:12;8.20;67.10
32366;DHT22;18837;46.832;16.838;2024-01-11T01:47:40;8.20;67.00
32366;DHT22;18837;46.832;16.838;2024-01-11T01:50:06;8.20;67.10
32366;DHT22;18837;46.832;16.838;2024-01-11T01:52:34;8.20;67.00
32366;DHT22;18837;46.832;16.838;2024-01-11T01:55:01;8.20;67.00
32366;DHT22;18837;46.832;16.838;2024-01-11T01:57:28;8.20;66.90
32366;DHT22;18837;46.832;16.838;2024-01-11T01:59:56;8.20;66.90
32366;DHT22;18837;46.832;16.838;2024-01-11T02:02:22;8.20;66.90
32366;DHT22;18837;46.832;16.838;2024-01-11T02:04:48;8.20;67.20
32366;DHT22;18837;46.832;16.838;2024-01-11T02:07:14;8.10;67.20
32366;DHT22;18837;46.832;16.838;2024-01-11T02:09:41;8.10;66.90
32366;DHT22;18837;46.832;16.838;2024-01-11T02:12:09;8.10;67.10
32366;DHT22;18837;46.832;16.838;2024-01-11T02:14:37;8.10;67.00
32366;DHT22;18837;46.832;16.838;2024-01-11T02:17:03;8.10;67.10
32366;DHT22;18837;46.832;16.838;2024-01-11T02:19:29;8.10;66.90
32366;DHT22;18837;46.832;16.838;2024-01-11T02:21:57;8.10;67.30
32366;DHT22;18837;46.832;16.838;2024-01-11T02:24:24;8.10;67.00
32366;DHT22;18837;46.832;16.838;2024-01-11T02:27:04;8.10;66.90
32366;DHT22;18837;46.832;16.838;2024-01-11T02:32:50;8.10;68.20
32366;DHT22;18837;46.832;16.838;2024-01-11T02:35:16;8.00;67.00
32366;DHT22;18837;46.832;16.838;2024-01-11T02:37:47;8.00;66.90
32366;DHT22;18837;46.832;16.838;2024-01-11T02:40:14;8.00;66.90
32366;DHT22;18837;46.832;16.838;2024-01-11T02:42:42;8.00;67.10
32366;DHT22;18837;46.832;16.838;2024-01-11T02:45:11;8.00;67.10
32366;DHT22;18837;46.832;16.838;2024-01-11T02:47:41;8.00;68.30
32366;DHT22;18837;46.832;16.838;2024-01-11T02:50:08;7.90;67.20
32366;DHT22;18837;46.832;16.838;2024-01-11T02:52:34;8.00;67.20
32366;DHT22;18837;46.832;16.838;2024-01-11T02:55:00;8.00;67.00
32366;DHT22;18837;46.832;16.838;2024-01-11T02:57:25;7.90;67.00
32366;DHT22;18837;46.832;16.838;2024-01-11T02:59:52;7.90;66.90
32366;DHT22;18837;46.832;16.838;2024-01-11T03:02:18;7.90;67.10
32366;DHT22;18837;46.832;16.838;2024-01-11T03:04:44;7.90;67.10
32366;DHT22;18837;46.832;16.838;2024-01-11T03:07:11;7.90;67.10
32366;DHT22;18837;46.832;16.838;2024-01-11T03:09:37;7.80;67.30
32366;DHT22;18837;46.832;16.838;2024-01-11T03:12:03;7.80;67.00
32366;DHT22;18837;46.832;16.838;2024-01-11T03:14:32;7.80;67.50
32366;DHT22;18837;46.832;16.838;2024-01-11T03:17:01;7.80;67.00
32366;DHT22;18837;46.832;16.838;2024-01-11T03:19:27;7.80;67.40
32366;DHT22;18837;46.832;16.838;2024-01-11T03:21:57;7.80;67.50
32366;DHT22;18837;46.832;16.838;2024-01-11T03:24:23;7.80;67.20
32366;DHT22;18837;46.832;16.838;2024-01-11T03:26:48;7.80;67.40
32366;DHT22;18837;46.832;16.838;2024-01-11T03:29:14;7.80;67.00
32366;DHT22;18837;46.832;16.838;2024-01-11T03:31:43;7.80;67.00
32366;DHT22;18837;46.832;16.838;2024-01-11T03:34:10;7.80;67.30
32366;DHT22;18837;46.832;16.838;2024-01-11T03:36:36;7.80;67.00
32366;DHT22;18837;46.832;16.838;2024-01-11T03:39:02;7.70;67.10
32366;DHT22;18837;46.832;16.838;2024-01-11T03:41:28;7.70;67.20
32366;DHT22;18837;46.832;16.838;2024-01-11T03:43:54;7.70;67.00
32366;DHT22;18837;46.832;16.838;2024-01-11T03:46:20;7.70;67.20
32366;DHT22;18837;46.832;16.838;2024-01-11T03:48:46;7.70;67.00
32366;DHT22;18837;46.832;16.838;2024-01-11T03:51:11;7.60;67.20
32366;DHT22;18837;46.832;16.838;2024-01-11T03:53:37;7.70;67.40
32366;DHT22;18837;46.832;16.838;2024-01-11T03:56:03;7.70;67.70
32366;DHT22;18837;46.832;16.838;2024-01-11T03:58:32;7.60;67.50
32366;DHT22;18837;46.832;16.838;2024-01-11T04:00:59;7.70;67.40
32366;DHT22;18837;46.832;16.838;2024-01-11T04:03:27;7.70;67.00
32366;DHT22;18837;46.832;16.838;2024-01-11T04:05:52;7.70;67.10
32366;DHT22;18837;46.832;16.838;2024-01-11T04:08:18;7.60;67.00
32366;DHT22;18837;46.832;16.838;2024-01-11T04:10:49;7.60;67.10
32366;DHT22;18837;46.832;16.838;2024-01-11T04:13:17;7.60;67.20
32366;DHT22;18837;46.832;16.838;2024-01-11T04:15:42;7.60;67.30
32366;DHT22;18837;46.832;16.838;2024-01-11T04:18:12;7.60;67.60
32366;DHT22;18837;46.832;16.838;2024-01-11T04:20:38;7.60;66.90
32366;DHT22;18837;46.832;16.838;2024-01-11T04:23:04;7.60;67.60
32366;DHT22;18837;46.832;16.838;2024-01-11T04:25:29;7.50;67.00
32366;DHT22;18837;46.832;16.838;2024-01-11T04:27:57;7.50;67.10
32366;DHT22;18837;46.832;16.838;2024-01-11T04:30:22;7.50;67.30
32366;DHT22;18837;46.832;16.838;2024-01-11T04:32:48;7.50;67.20
32366;DHT22;18837;46.832;16.838;2024-01-11T04:35:14;7.50;67.20
32366;DHT22;18837;46.832;16.838;2024-01-11T04:37:40;7.50;67.50
32366;DHT22;18837;46.832;16.838;2024-01-11T04:40:07;7.50;67.50
32366;DHT22;18837;46.832;16.838;2024-01-11T04:42:33;7.50;67.70
32366;DHT22;18837;46.832;16.838;2024-01-11T04:45:01;7.50;66.90
32366;DHT22;18837;46.832;16.838;2024-01-11T04:47:32;7.40;67.10
32366;DHT22;18837;46.832;16.838;2024-01-11T04:49:58;7.40;67.00
32366;DHT22;18837;46.832;16.838;2024-01-11T04:52:24;7.50;67.30
32366;DHT22;18837;46.832;16.838;2024-01-11T04:54:50;7.50;67.50
32366;DHT22;18837;46.832;16.838;2024-01-11T04:57:16;7.40;67.20
32366;DHT22;18837;46.832;16.838;2024-01-11T04:59:42;7.40;66.80
32366;DHT22;18837;46.832;16.838;2024-01-11T05:02:08;7.40;66.80
32366;DHT22;18837;46.832;16.838;2024-01-11T05:04:34;7.40;67.60
32366;DHT22;18837;46.832;16.838;2024-01-11T05:07:00;7.40;67.10
32366;DHT22;18837;46.832;16.838;2024-01-11T05:09:26;7.30;67.60
32366;DHT22;18837;46.832;16.838;2024-01-11T05:11:52;7.30;67.00
32366;DHT22;18837;46.832;16.838;2024-01-11T05:14:17;7.30;66.60
32366;DHT22;18837;46.832;16.838;2024-01-11T05:16:43;7.40;66.90
32366;DHT22;18837;46.832;16.838;2024-01-11T05:19:15;7.40;66.90
32366;DHT22;18837;46.832;16.838;2024-01-11T05:21:41;7.40;67.50
32366;DHT22;18837;46.832;16.838;2024-01-11T05:24:07;7.30;66.80
32366;DHT22;18837;46.832;16.838;2024-01-11T05:26:32;7.40;66.60
32366;DHT22;18837;46.832;16.838;2024-01-11T05:28:58;7.30;66.60
32366;DHT22;18837;46.832;16.838;2024-01-11T05:31:24;7.30;66.70
32366;DHT22;18837;46.832;16.838;2024-01-11T05:33:50;7.30;66.70
32366;DHT22;18837;46.832;16.838;2024-01-11T05:36:16;7.30;66.60
32366;DHT22;18837;46.832;16.838;2024-01-11T05:38:45;7.20;67.10
32366;DHT22;18837;46.832;16.838;2024-01-11T05:41:11;7.20;67.00
32366;DHT22;18837;46.832;16.838;2024-01-11T05:43:39;7.20;67.00
32366;DHT22;18837;46.832;16.838;2024-01-11T05:46:05;7.20;68.10
32366;DHT22;18837;46.832;16.838;2024-01-11T05:48:34;7.20;67.30
32366;DHT22;18837;46.832;16.838;2024-01-11T05:50:59;7.30;67.00
32366;DHT22;18837;46.832;16.838;2024-01-11T05:53:25;7.20;66.90
32366;DHT22;18837;46.832;16.838;2024-01-11T05:55:57;7.20;66.70
32366;DHT22;18837;46.832;16.838;2024-01-11T06:56:16;6.70;68.20
32366;DHT22;18837;46.832;16.838;2024-01-11T06:58:46;6.70;68.00
32366;DHT22;18837;46.832;16.838;2024-01-11T07:01:12;6.70;68.30
32366;DHT22;18837;46.832;16.838;2024-01-11T07:03:50;6.70;68.20
32366;DHT22;18837;46.832;16.838;2024-01-11T07:06:35;6.70;68.30
32366;DHT22;18837;46.832;16.838;2024-01-11T07:09:02;6.70;68.00
32366;DHT22;18837;46.832;16.838;2024-01-11T07:11:28;6.80;68.10
32366;DHT22;18837;46.832;16.838;2024-01-11T07:13:54;6.70;69.10
32366;DHT22;18837;46.832;16.838;2024-01-11T07:16:21;6.50;68.10
32366;DHT22;18837;46.832;16.838;2024-01-11T07:18:47;6.70;68.40
32366;DHT22;18837;46.832;16.838;2024-01-11T07:21:23;6.70;68.20
32366;DHT22;18837;46.832;16.838;2024-01-11T07:23:55;6.70;68.40
32366;DHT22;18837;46.832;16.838;2024-01-11T07:26:22;6.70;68.00
32366;DHT22;18837;46.832;16.838;2024-01-11T07:28:49;6.60;68.20
32366;DHT22;18837;46.832;16.838;2024-01-11T07:31:15;6.70;68.10
32366;DHT22;18837;46.832;16.838;2024-01-11T07:33:42;6.60;68.30
32366;DHT22;18837;46.832;16.838;2024-01-11T07:36:07;6.60;68.50
32366;DHT22;18837;46.832;16.838;2024-01-11T07:39:08;6.60;68.60
32366;DHT22;18837;46.832;16.838;2024-01-11T07:41:53;6.70;69.90
32366;DHT22;18837;46.832;16.838;2024-01-11T07:44:18;6.70;68.40
32366;DHT22;18837;46.832;16.838;2024-01-11T07:46:45;6.70;68.10
32366;DHT22;18837;46.832;16.838;2024-01-11T07:49:11;6.70;68.20
32366;DHT22;18837;46.832;16.838;2024-01-11T07:51:37;6.70;68.80
32366;DHT22;18837;46.832;16.838;2024-01-11T07:54:04;6.70;68.80
32366;DHT22;18837;46.832;16.838;2024-01-11T07:56:30;6.60;69.00
32366;DHT22;18837;46.832;16.838;2024-01-11T07:58:56;6.60;69.00
32366;DHT22;18837;46.832;16.838;2024-01-11T08:01:22;6.70;68.10
32366;DHT22;18837;46.832;16.838;2024-01-11T08:03:48;6.70;68.60
32366;DHT22;18837;46.832;16.838;2024-01-11T08:06:17;6.70;68.30
32366;DHT22;18837;46.832;16.838;2024-01-11T08:08:43;6.70;68.50
32366;DHT22;18837;46.832;16.838;2024-01-11T08:11:28;6.70;68.10
32366;DHT22;18837;46.832;16.838;2024-01-11T08:14:25;6.70;69.10
32366;DHT22;18837;46.832;16.838;2024-01-11T08:17:00;6.80;69.20
32366;DHT22;18837;46.832;16.838;2024-01-11T08:19:27;6.80;68.40
32366;DHT22;18837;46.832;16.838;2024-01-11T08:21:52;6.80;67.90
32366;DHT22;18837;46.832;16.838;2024-01-11T08:24:24;6.90;69.00
32366;DHT22;18837;46.832;16.838;2024-01-11T09:06:47;7.20;71.10
32366;DHT22;18837;46.832;16.838;2024-01-11T09:09:13;7.20;70.00
32366;DHT22;18837;46.832;16.838;2024-01-11T09:11:39;7.20;70.10
32366;DHT22;18837;46.832;16.838;2024-01-11T09:14:06;7.20;69.80
32366;DHT22;18837;46.832;16.838;2024-01-11T09:16:33;7.20;70.00
32366;DHT22;18837;46.832;16.838;2024-01-11T09:19:00;7.30;70.80
32366;DHT22;18837;46.832;16.838;2024-01-11T09:25:05;7.30;71.50
32366;DHT22;18837;46.832;16.838;2024-01-11T09:27:33;7.40;70.80
32366;DHT22;18837;46.832;16.838;2024-01-11T09:29:59;7.40;70.50
32366;DHT22;18837;46.832;16.838;2024-01-11T09:32:25;7.40;70.10
32366;DHT22;18837;46.832;16.838;2024-01-11T09:34:51;7.50;70.90
32366;DHT22;18837;46.832;16.838;2024-01-11T09:37:17;7.50;70.50
32366;DHT22;18837;46.832;16.838;2024-01-11T09:39:58;7.60;70.10
32366;DHT22;18837;46.832;16.838;2024-01-11T09:42:26;7.60;70.70
32366;DHT22;18837;46.832;16.838;2024-01-11T09:44:54;7.70;70.00
32366;DHT22;18837;46.832;16.838;2024-01-11T09:47:22;7.70;70.30
32366;DHT22;18837;46.832;16.838;2024-01-11T09:49:50;7.70;70.20
32366;DHT22;18837;46.832;16.838;2024-01-11T09:52:20;7.70;69.80
32366;DHT22;18837;46.832;16.838;2024-01-11T09:54:46;7.70;70.00
32366;DHT22;18837;46.832;16.838;2024-01-11T09:57:33;7.70;70.20
32366;DHT22;18837;46.832;16.838;2024-01-11T10:00:35;7.80;71.40
32366;DHT22;18837;46.832;16.838;2024-01-11T10:03:01;6.20;69.20
32366;DHT22;18837;46.832;16.838;2024-01-11T10:05:27;7.80;70.40
32366;DHT22;18837;46.832;16.838;2024-01-11T10:07:55;7.80;70.70
32366;DHT22;18837;46.832;16.838;2024-01-11T10:10:21;7.70;70.90
32366;DHT22;18837;46.832;16.838;2024-01-11T10:12:47;7.80;70.70
32366;DHT22;18837;46.832;16.838;2024-01-11T10:15:28;7.90;70.80
32366;DHT22;18837;46.832;16.838;2024-01-11T10:17:54;7.90;70.40
32366;DHT22;18837;46.832;16.838;2024-01-11T10:20:21;8.00;70.80
32366;DHT22;18837;46.832;16.838;2024-01-11T10:22:49;8.00;70.20
32366;DHT22;18837;46.832;16.838;2024-01-11T10:25:17;8.00;70.50
32366;DHT22;18837;46.832;16.838;2024-01-11T10:27:44;8.00;70.20
32366;DHT22;18837;46.832;16.838;2024-01-11T10:30:39;8.00;71.20
32366;DHT22;18837;46.832;16.838;2024-01-11T10:36:22;8.10;71.70
32366;DHT22;18837;46.832;16.838;2024-01-11T10:38:49;8.10;70.70
32366;DHT22;18837;46.832;16.838;2024-01-11T10:41:18;8.10;70.50
32366;DHT22;18837;46.832;16.838;2024-01-11T10:43:46;8.10;70.10
32366;DHT22;18837;46.832;16.838;2024-01-11T10:46:15;8.10;70.70
32366;DHT22;18837;46.832;16.838;2024-01-11T10:49:07;8.10;70.20
32366;DHT22;18837;46.832;16.838;2024-01-11T10:51:34;8.20;70.30
32366;DHT22;18837;46.832;16.838;2024-01-11T10:54:00;7.40;70.20
32366;DHT22;18837;46.832;16.838;2024-01-11T10:56:28;8.20;70.40
32366;DHT22;18837;46.832;16.838;2024-01-11T10:58:56;8.30;70.10
32366;DHT22;18837;46.832;16.838;2024-01-11T11:01:22;8.30;70.50
32366;DHT22;18837;46.832;16.838;2024-01-11T11:03:52;8.30;70.20
32366;DHT22;18837;46.832;16.838;2024-01-11T11:06:55;8.30;70.20
32366;DHT22;18837;46.832;16.838;2024-01-11T11:09:43;8.20;71.60
32366;DHT22;18837;46.832;16.838;2024-01-11T11:12:11;6.40;70.60
32366;DHT22;18837;46.832;16.838;2024-01-11T11:14:38;8.30;70.40
32366;DHT22;18837;46.832;16.838;2024-01-11T11:17:04;8.30;70.80
32366;DHT22;18837;46.832;16.838;2024-01-11T11:19:31;8.30;70.40
32366;DHT22;18837;46.832;16.838;2024-01-11T11:21:57;8.40;70.80
32366;DHT22;18837;46.832;16.838;2024-01-11T11:24:34;8.40;70.50
32366;DHT22;18837;46.832;16.838;2024-01-11T11:27:00;8.40;70.60
32366;DHT22;18837;46.832;16.838;2024-01-11T11:29:26;8.40;70.80
32366;DHT22;18837;46.832;16.838;2024-01-11T11:31:52;8.50;70.60
32366;DHT22;18837;46.832;16.838;2024-01-11T11:34:44;8.50;70.60
32366;DHT22;18837;46.832;16.838;2024-01-11T11:37:10;8.50;71.70
32366;DHT22;18837;46.832;16.838;2024-01-11T11:43:17;8.50;71.80
32366;DHT22;18837;46.832;16.838;2024-01-11T11:45:46;8.50;70.20
32366;DHT22;18837;46.832;16.838;2024-01-11T11:51:11;8.60;71.70
32366;DHT22;18837;46.832;16.838;2024-01-11T11:53:39;8.10;71.40
32366;DHT22;18837;46.832;16.838;2024-01-11T11:56:06;8.50;70.60
32366;DHT22;18837;46.832;16.838;2024-01-11T11:58:38;8.50;70.70
32366;DHT22;18837;46.832;16.838;2024-01-11T12:01:04;8.60;71.10
32366;DHT22;18837;46.832;16.838;2024-01-11T12:03:34;8.60;70.60
32366;DHT22;18837;46.832;16.838;2024-01-11T12:06:05;8.70;70.30
32366;DHT22;18837;46.832;16.838;2024-01-11T12:08:31;8.60;70.70
32366;DHT22;18837;46.832;16.838;2024-01-11T12:10:58;8.70;70.30
32366;DHT22;18837;46.832;16.838;2024-01-11T12:13:42;8.70;70.80
32366;DHT22;18837;46.832;16.838;2024-01-11T12:19:28;8.70;72.00
32366;DHT22;18837;46.832;16.838;2024-01-11T12:21:54;8.70;70.90
32366;DHT22;18837;46.832;16.838;2024-01-11T12:24:20;8.70;70.70
32366;DHT22;18837;46.832;16.838;2024-01-11T12:26:50;8.70;71.00
32366;DHT22;18837;46.832;16.838;2024-01-11T12:29:19;8.70;70.70
32366;DHT22;18837;46.832;16.838;2024-01-11T12:31:45;8.70;70.80
32366;DHT22;18837;46.832;16.838;2024-01-11T12:34:20;8.70;70.80
32366;DHT22;18837;46.832;16.838;2024-01-11T12:36:47;8.70;70.70
32366;DHT22;18837;46.832;16.838;2024-01-11T12:39:13;8.80;70.90
32366;DHT22;18837;46.832;16.838;2024-01-11T12:41:39;8.80;70.80
32366;DHT22;18837;46.832;16.838;2024-01-11T12:44:05;8.80;70.60
32366;DHT22;18837;46.832;16.838;2024-01-11T12:46:31;8.80;70.90
32366;DHT22;18837;46.832;16.838;2024-01-11T12:52:39;8.80;72.00
32366;DHT22;18837;46.832;16.838;2024-01-11T12:55:07;8.80;72.20
32366;DHT22;18837;46.832;16.838;2024-01-11T12:57:36;8.70;71.60
32366;DHT22;18837;46.832;16.838;2024-01-11T13:00:13;8.50;72.20
32366;DHT22;18837;46.832;16.838;2024-01-11T13:02:39;8.20;72.40
32366;DHT22;18837;46.832;16.838;2024-01-11T13:05:06;8.10;70.90
32366;DHT22;18837;46.832;16.838;2024-01-11T13:07:33;7.80;71.20
32366;DHT22;18837;46.832;16.838;2024-01-11T13:09:59;7.70;72.30
32366;DHT22;18837;46.832;16.838;2024-01-11T13:12:25;7.60;73.20
32366;DHT22;18837;46.832;16.838;2024-01-11T13:14:51;7.60;74.20
32366;DHT22;18837;46.832;16.838;2024-01-11T13:17:18;7.50;74.80
32366;DHT22;18837;46.832;16.838;2024-01-11T13:19:44;7.40;75.60
32366;DHT22;18837;46.832;16.838;2024-01-11T13:22:16;7.40;77.20
32366;DHT22;18837;46.832;16.838;2024-01-11T13:25:01;7.30;76.60
32366;DHT22;18837;46.832;16.838;2024-01-11T13:27:46;7.30;77.60
32366;DHT22;18837;46.832;16.838;2024-01-11T13:30:12;7.20;77.90
32366;DHT22;18837;46.832;16.838;2024-01-11T13:32:39;7.20;78.00
32366;DHT22;18837;46.832;16.838;2024-01-11T13:35:05;7.20;78.80
32366;DHT22;18837;46.832;16.838;2024-01-11T13:37:31;7.20;79.20
32366;DHT22;18837;46.832;16.838;2024-01-11T13:39:57;7.20;79.30
32366;DHT22;18837;46.832;16.838;2024-01-11T13:42:28;7.20;79.40
32366;DHT22;18837;46.832;16.838;2024-01-11T13:44:54;7.20;79.20
32366;DHT22;18837;46.832;16.838;2024-01-11T13:47:20;7.20;79.60
32366;DHT22;18837;46.832;16.838;2024-01-11T13:49:46;7.20;81.10
32366;DHT22;18837;46.832;16.838;2024-01-11T13:52:12;7.20;80.40
32366;DHT22;18837;46.832;16.838;2024-01-11T13:54:38;7.20;79.60
32366;DHT22;18837;46.832;16.838;2024-01-11T13:57:28;7.10;79.70
32366;DHT22;18837;46.832;16.838;2024-01-11T14:00:19;7.10;81.30
32366;DHT22;18837;46.832;16.838;2024-01-11T14:02:50;7.10;82.00
32366;DHT22;18837;46.832;16.838;2024-01-11T14:05:16;7.10;80.20
32366;DHT22;18837;46.832;16.838;2024-01-11T14:07:44;7.10;79.60
32366;DHT22;18837;46.832;16.838;2024-01-11T14:10:14;7.10;81.00
32366;DHT22;18837;46.832;16.838;2024-01-11T14:12:40;7.00;80.60
32366;DHT22;18837;46.832;16.838;2024-01-11T14:15:08;7.00;80.40
32366;DHT22;18837;46.832;16.838;2024-01-11T14:17:39;7.00;80.80
32366;DHT22;18837;46.832;16.838;2024-01-11T14:20:06;6.90;80.50
32366;DHT22;18837;46.832;16.838;2024-01-11T14:22:37;6.90;80.90
32366;DHT22;18837;46.832;16.838;2024-01-11T14:25:03;6.90;81.10
32366;DHT22;18837;46.832;16.838;2024-01-11T14:27:29;6.90;81.90
32366;DHT22;18837;46.832;16.838;2024-01-11T14:29:56;7.00;81.40
32366;DHT22;18837;46.832;16.838;2024-01-11T14:32:46;6.90;81.20
32366;DHT22;18837;46.832;16.838;2024-01-11T14:35:24;6.90;84.10
32366;DHT22;18837;46.832;16.838;2024-01-11T14:37:50;6.80;81.70
32366;DHT22;18837;46.832;16.838;2024-01-11T14:40:18;6.80;81.60
32366;DHT22;18837;46.832;16.838;2024-01-11T14:42:44;6.80;82.20
32366;DHT22;18837;46.832;16.838;2024-01-11T14:45:10;6.80;82.00
32366;DHT22;18837;46.832;16.838;2024-01-11T14:47:35;6.80;82.30
32366;DHT22;18837;46.832;16.838;2024-01-11T14:50:13;6.80;82.00
32366;DHT22;18837;46.832;16.838;2024-01-11T14:52:39;6.80;82.50
32366;DHT22;18837;46.832;16.838;2024-01-11T14:55:06;6.80;83.30
32366;DHT22;18837;46.832;16.838;2024-01-11T14:57:32;6.80;84.10
32366;DHT22;18837;46.832;16.838;2024-01-11T14:59:58;6.80;84.00
32366;DHT22;18837;46.832;16.838;2024-01-11T15:02:24;6.80;83.70
32366;DHT22;18837;46.832;16.838;2024-01-11T15:04:50;6.80;84.90
32366;DHT22;18837;46.832;16.838;2024-01-11T15:07:21;6.80;83.70
32366;DHT22;18837;46.832;16.838;2024-01-11T15:09:51;6.80;84.30
32366;DHT22;18837;46.832;16.838;2024-01-11T15:12:17;6.80;84.00
32366;DHT22;18837;46.832;16.838;2024-01-11T15:14:45;6.80;85.30
32366;DHT22;18837;46.832;16.838;2024-01-11T15:17:11;6.90;85.10
32366;DHT22;18837;46.832;16.838;2024-01-11T15:19:37;7.00;84.60
32366;DHT22;18837;46.832;16.838;2024-01-11T15:22:02;7.00;85.20
32366;DHT22;18837;46.832;16.838;2024-01-11T15:24:28;7.10;85.30
32366;DHT22;18837;46.832;16.838;2024-01-11T15:26:56;7.10;84.60
32366;DHT22;18837;46.832;16.838;2024-01-11T15:29:22;7.20;84.80
32366;DHT22;18837;46.832;16.838;2024-01-11T15:31:48;7.20;84.90
32366;DHT22;18837;46.832;16.838;2024-01-11T15:34:15;7.30;85.50
32366;DHT22;18837;46.832;16.838;2024-01-11T15:36:41;7.40;85.40
32366;DHT22;18837;46.832;16.838;2024-01-11T15:39:07;7.50;86.20
32366;DHT22;18837;46.832;16.838;2024-01-11T15:41:58;7.60;85.40
32366;DHT22;18837;46.832;16.838;2024-01-11T15:44:42;7.70;86.40
32366;DHT22;18837;46.832;16.838;2024-01-11T15:47:09;7.80;85.10
32366;DHT22;18837;46.832;16.838;2024-01-11T15:49:36;7.90;85.00
32366;DHT22;18837;46.832;16.838;2024-01-11T15:52:02;7.90;85.40
32366;DHT22;18837;46.832;16.838;2024-01-11T15:54:28;8.00;85.10
32366;DHT22;18837;46.832;16.838;2024-01-11T15:56:54;8.10;84.50
32366;DHT22;18837;46.832;16.838;2024-01-11T15:59:38;8.10;83.90
32366;DHT22;18837;46.832;16.838;2024-01-11T16:02:04;8.20;82.90
32366;DHT22;18837;46.832;16.838;2024-01-11T16:04:30;8.30;82.20
32366;DHT22;18837;46.832;16.838;2024-01-11T16:06:56;8.40;82.90
32366;DHT22;18837;46.832;16.838;2024-01-11T16:09:22;8.40;82.30
32366;DHT22;18837;46.832;16.838;2024-01-11T16:11:48;8.40;82.20
32366;DHT22;18837;46.832;16.838;2024-01-11T16:14:15;8.40;82.40
32366;DHT22;18837;46.832;16.838;2024-01-11T16:16:53;8.40;82.30
32366;DHT22;18837;46.832;16.838;2024-01-11T16:19:31;8.40;81.90
32366;DHT22;18837;46.832;16.838;2024-01-11T16:21:59;8.40;81.80
32366;DHT22;18837;46.832;16.838;2024-01-11T16:24:24;8.40;81.60
32366;DHT22;18837;46.832;16.838;2024-01-11T16:26:50;8.40;81.50
32366;DHT22;18837;46.832;16.838;2024-01-11T16:29:16;8.40;81.80
32366;DHT22;18837;46.832;16.838;2024-01-11T16:31:42;8.40;81.10
32366;DHT22;18837;46.832;16.838;2024-01-11T16:34:16;8.40;81.00
32366;DHT22;18837;46.832;16.838;2024-01-11T16:36:42;8.50;80.90
32366;DHT22;18837;46.832;16.838;2024-01-11T16:39:08;8.40;80.60
32366;DHT22;18837;46.832;16.838;2024-01-11T16:41:37;8.40;81.70
32366;DHT22;18837;46.832;16.838;2024-01-11T16:44:04;8.30;81.80
32366;DHT22;18837;46.832;16.838;2024-01-11T16:46:30;8.40;82.40
32366;DHT22;18837;46.832;16.838;2024-01-11T16:49:08;8.50;83.70
32366;DHT22;18837;46.832;16.838;2024-01-11T16:51:53;8.60;82.00
32366;DHT22;18837;46.832;16.838;2024-01-11T16:54:24;8.80;82.30
32366;DHT22;18837;46.832;16.838;2024-01-11T16:56:50;9.00;82.00
32366;DHT22;18837;46.832;16.838;2024-01-11T16:59:17;9.20;82.20
32366;DHT22;18837;46.832;16.838;2024-01-11T17:01:43;9.40;81.30
32366;DHT22;18837;46.832;16.838;2024-01-11T17:04:09;9.40;80.40
32366;DHT22;18837;46.832;16.838;2024-01-11T17:06:36;9.60;80.30
32366;DHT22;18837;46.832;16.838;2024-01-11T17:09:08;9.60;80.00
32366;DHT22;18837;46.832;16.838;2024-01-11T17:11:33;9.70;79.70
32366;DHT22;18837;46.832;16.838;2024-01-11T17:14:07;9.70;79.80
32366;DHT22;18837;46.832;16.838;2024-01-11T17:16:33;9.70;79.30
32366;DHT22;18837;46.832;16.838;2024-01-11T17:18:59;9.70;78.80
32366;DHT22;18837;46.832;16.838;2024-01-11T17:21:28;9.70;79.10
32366;DHT22;18837;46.832;16.838;2024-01-11T17:23:56;9.70;78.90
32366;DHT22;18837;46.832;16.838;2024-01-11T17:26:47;9.70;78.80
32366;DHT22;18837;46.832;16.838;2024-01-11T17:29:25;9.70;77.70
32366;DHT22;18837;46.832;16.838;2024-01-11T17:31:51;9.70;77.90
32366;DHT22;18837;46.832;16.838;2024-01-11T17:34:17;9.60;78.00
32366;DHT22;18837;46.832;16.838;2024-01-11T17:36:42;9.60;78.20
32366;DHT22;18837;46.832;16.838;2024-01-11T17:39:08;9.70;78.50
32366;DHT22;18837;46.832;16.838;2024-01-11T17:41:38;9.60;79.00